createdAt,value
2023-03-11T00:00:16.993Z,2.80
2023-03-11T00:02:44.912Z,2.80
2023-03-11T00:05:17.332Z,2.70
2023-03-11T00:07:45.348Z,2.70
2023-03-11T00:10:15.946Z,2.60
2023-03-11T00:12:45.192Z,2.60
2023-03-11T00:15:13.559Z,2.60
2023-03-11T00:17:41.740Z,2.60
2023-03-11T00:20:17.310Z,2.40
2023-03-11T00:22:45.058Z,2.30
2023-03-11T00:25:12.954Z,2.20
2023-03-11T00:27:40.718Z,2.10
2023-03-11T00:30:12.317Z,1.90
2023-03-11T00:32:40.181Z,1.70
2023-03-11T00:35:09.465Z,1.70
2023-03-11T00:37:37.207Z,1.60
2023-03-11T00:40:08.582Z,1.50
2023-03-11T00:42:36.321Z,1.40
2023-03-11T00:45:04.190Z,1.30
2023-03-11T00:47:33.246Z,1.30
2023-03-11T00:50:01.155Z,1.20
2023-03-11T00:52:29.136Z,1.20
2023-03-11T00:54:56.924Z,1.10
2023-03-11T00:57:24.631Z,1.10
2023-03-11T00:59:53.345Z,1.10
2023-03-11T01:02:21.210Z,1.00
2023-03-11T01:04:54.758Z,1.00
2023-03-11T01:07:22.552Z,1.00
2023-03-11T01:09:50.304Z,1.00
2023-03-11T01:12:18.118Z,0.90
2023-03-11T01:14:45.856Z,0.90
2023-03-11T01:17:13.601Z,0.90
2023-03-11T01:19:41.520Z,0.90
2023-03-11T01:22:10.690Z,0.90
2023-03-11T01:24:38.561Z,0.90
2023-03-11T01:27:06.413Z,0.90
2023-03-11T01:29:34.169Z,0.90
2023-03-11T01:32:01.921Z,0.80
2023-03-11T01:34:29.633Z,0.80
2023-03-11T01:36:57.342Z,0.80
2023-03-11T01:39:26.491Z,0.80
2023-03-11T01:41:56.104Z,0.80
2023-03-11T01:44:24.093Z,0.80
2023-03-11T01:47:32.649Z,0.80
2023-03-11T01:50:00.642Z,0.80
2023-03-11T01:52:29.219Z,0.80
2023-03-11T01:54:58.349Z,0.80
2023-03-11T01:57:26.134Z,0.80
2023-03-11T01:59:58.698Z,0.70
2023-03-11T02:02:31.882Z,0.70
2023-03-11T02:05:02.180Z,0.80
2023-03-11T02:07:29.950Z,0.80
2023-03-11T02:09:59.024Z,0.80
2023-03-11T02:12:29.829Z,0.70
2023-03-11T02:14:57.663Z,0.70
2023-03-11T02:17:25.847Z,0.70
2023-03-11T02:20:06.296Z,0.80
2023-03-11T02:22:35.390Z,0.70
2023-03-11T02:25:11.265Z,0.70
2023-03-11T02:27:45.092Z,0.70
2023-03-11T02:30:14.996Z,0.70
2023-03-11T02:32:47.174Z,0.70
2023-03-11T02:35:15.912Z,0.70
2023-03-11T02:37:47.849Z,0.70
2023-03-11T02:40:52.921Z,0.70
2023-03-11T02:43:25.819Z,0.70
2023-03-11T02:45:54.083Z,0.70
2023-03-11T02:48:23.975Z,0.70
2023-03-11T02:50:52.231Z,0.80
2023-03-11T02:53:20.914Z,0.80
2023-03-11T02:55:48.663Z,0.80
2023-03-11T02:58:16.425Z,0.80
2023-03-11T03:00:45.545Z,0.80
2023-03-11T03:03:13.296Z,0.80
2023-03-11T03:05:41.053Z,0.80
2023-03-11T03:08:08.989Z,0.80
2023-03-11T03:10:36.861Z,0.80
2023-03-11T03:13:05.251Z,0.80
2023-03-11T03:15:33.097Z,0.90
2023-03-11T03:18:02.151Z,0.90
2023-03-11T03:20:29.902Z,0.80
2023-03-11T03:22:57.760Z,0.90
2023-03-11T03:25:25.578Z,0.80
2023-03-11T03:27:53.297Z,0.90
2023-03-11T03:30:22.451Z,0.80
2023-03-11T03:32:50.226Z,0.90
2023-03-11T03:35:19.391Z,0.90
2023-03-11T03:37:47.186Z,0.90
2023-03-11T03:40:15.444Z,0.90
2023-03-11T03:42:43.170Z,0.90
2023-03-11T03:45:12.066Z,0.90
2023-03-11T03:47:39.972Z,0.80
2023-03-11T03:50:09.993Z,0.80
2023-03-11T03:52:39.611Z,0.80
2023-03-11T03:55:08.027Z,0.80
2023-03-11T03:57:35.807Z,0.80
2023-03-11T04:00:04.357Z,0.80
2023-03-11T04:02:32.636Z,0.80
2023-03-11T04:05:00.402Z,0.80
2023-03-11T04:07:28.129Z,0.80
2023-03-11T04:09:57.195Z,0.70
2023-03-11T04:12:24.944Z,0.80
2023-03-11T04:14:52.773Z,0.80
2023-03-11T04:17:20.530Z,0.80
2023-03-11T04:19:48.260Z,0.80
2023-03-11T04:22:16.071Z,0.80
2023-03-11T04:24:43.790Z,0.80
2023-03-11T04:27:12.883Z,0.80
2023-03-11T04:29:40.606Z,0.80
2023-03-11T04:32:08.997Z,0.90
2023-03-11T04:34:36.814Z,0.90
2023-03-11T04:37:04.591Z,0.90
2023-03-11T04:39:32.335Z,0.90
2023-03-11T04:42:01.680Z,0.90
2023-03-11T04:44:32.665Z,0.90
2023-03-11T04:47:00.415Z,0.90
2023-03-11T04:49:28.164Z,0.90
2023-03-11T04:51:56.010Z,0.90
2023-03-11T04:54:23.731Z,0.90
2023-03-11T04:56:51.460Z,0.90
2023-03-11T04:59:19.222Z,0.90
2023-03-11T05:01:48.390Z,1.00
2023-03-11T05:04:16.221Z,0.90
2023-03-11T05:06:44.106Z,0.80
2023-03-11T05:09:11.796Z,0.80
2023-03-11T05:11:39.533Z,0.80
2023-03-11T05:14:07.279Z,0.90
2023-03-11T05:16:35.326Z,0.80
2023-03-11T05:19:24.719Z,0.90
2023-03-11T05:21:52.561Z,0.90
2023-03-11T05:24:20.257Z,0.80
2023-03-11T05:26:48.628Z,0.80
2023-03-11T05:29:16.439Z,0.80
2023-03-11T05:31:44.253Z,0.80
2023-03-11T05:34:13.303Z,0.80
2023-03-11T05:36:41.109Z,0.80
2023-03-11T05:39:09.203Z,0.80
2023-03-11T05:41:36.929Z,0.80
2023-03-11T05:44:05.354Z,0.80
2023-03-11T05:46:33.314Z,0.80
2023-03-11T05:49:01.105Z,0.80
2023-03-11T05:51:30.239Z,0.80
2023-03-11T05:53:58.718Z,0.80
2023-03-11T05:56:26.539Z,0.80
2023-03-11T05:58:54.236Z,0.80
2023-03-11T06:01:21.981Z,0.80
2023-03-11T06:03:49.858Z,0.90
2023-03-11T06:06:17.800Z,0.80
2023-03-11T06:08:49.861Z,0.90
2023-03-11T06:11:18.151Z,0.90
2023-03-11T06:13:45.908Z,0.90
2023-03-11T06:16:14.240Z,0.90
2023-03-11T06:18:42.020Z,0.90
2023-03-11T06:21:16.433Z,0.90
2023-03-11T06:23:44.202Z,0.90
2023-03-11T06:26:16.054Z,0.90
2023-03-11T06:28:44.000Z,0.90
2023-03-11T06:31:15.353Z,0.80
2023-03-11T06:33:43.119Z,0.80
2023-03-11T06:36:13.779Z,0.90
2023-03-11T06:38:41.887Z,0.90
2023-03-11T06:41:09.648Z,0.90
2023-03-11T06:43:38.846Z,1.00
2023-03-11T06:46:10.746Z,1.00
2023-03-11T06:48:38.532Z,1.00
2023-03-11T06:51:06.692Z,1.00
2023-03-11T06:53:34.692Z,1.00
2023-03-11T06:56:04.556Z,1.00
2023-03-11T06:58:33.232Z,1.10
2023-03-11T07:01:08.200Z,1.10
2023-03-11T07:03:36.113Z,1.10
2023-03-11T07:06:06.255Z,1.10
2023-03-11T07:08:34.476Z,1.10
2023-03-11T07:11:04.696Z,1.10
2023-03-11T07:13:33.337Z,1.10
2023-03-11T07:16:02.490Z,1.10
2023-03-11T07:18:31.610Z,1.10
2023-03-11T07:20:59.634Z,1.10
2023-03-11T07:23:27.345Z,1.20
2023-03-11T07:25:55.600Z,1.20
2023-03-11T07:28:23.422Z,1.20
2023-03-11T07:30:51.510Z,1.10
2023-03-11T07:33:19.763Z,1.10
2023-03-11T07:35:49.415Z,1.10
2023-03-11T07:38:18.026Z,1.10
2023-03-11T07:40:46.081Z,1.10
2023-03-11T07:43:13.824Z,1.10
2023-03-11T07:45:41.831Z,1.30
2023-03-11T07:48:09.648Z,1.30
2023-03-11T07:50:37.494Z,1.30
2023-03-11T07:53:06.547Z,1.30
2023-03-11T07:55:34.841Z,1.50
2023-03-11T07:58:02.796Z,1.50
2023-03-11T08:00:30.759Z,1.60
2023-03-11T08:02:58.495Z,1.70
2023-03-11T08:05:26.302Z,1.80
2023-03-11T08:07:54.060Z,1.90
2023-03-11T08:10:23.192Z,2.10
2023-03-11T08:12:52.799Z,2.20
2023-03-11T08:15:20.543Z,2.60
2023-03-11T08:17:48.304Z,2.70
2023-03-11T08:20:16.191Z,2.60
2023-03-11T08:22:57.348Z,2.50
2023-03-11T08:25:27.435Z,2.40
2023-03-11T08:27:55.170Z,2.20
2023-03-11T08:30:23.286Z,2.10
2023-03-11T08:32:51.189Z,2.00
2023-03-11T08:35:19.405Z,1.90
2023-03-11T08:37:47.433Z,1.90
2023-03-11T08:40:15.259Z,1.90
2023-03-11T08:42:44.354Z,1.90
2023-03-11T08:45:12.707Z,2.00
2023-03-11T08:47:41.130Z,1.90
2023-03-11T08:50:14.500Z,2.10
2023-03-11T08:52:42.490Z,2.00
2023-03-11T08:55:13.340Z,2.00
2023-03-11T08:57:42.309Z,2.00
2023-03-11T09:00:13.655Z,2.10
2023-03-11T09:02:41.749Z,2.00
2023-03-11T09:05:10.591Z,1.90
2023-03-11T09:07:38.459Z,1.80
2023-03-11T09:10:07.270Z,1.90
2023-03-11T09:12:35.024Z,2.10
2023-03-11T09:15:02.727Z,2.20
2023-03-11T09:17:32.005Z,2.20
2023-03-11T09:19:59.759Z,2.20
2023-03-11T09:22:27.575Z,2.20
2023-03-11T09:24:55.361Z,2.20
2023-03-11T09:27:23.212Z,2.40
2023-03-11T09:29:50.938Z,2.60
2023-03-11T09:32:18.708Z,2.70
2023-03-11T09:34:47.765Z,2.80
2023-03-11T09:37:15.505Z,3.40
2023-03-11T09:39:43.224Z,4.30
2023-03-11T09:42:19.793Z,4.70
2023-03-11T09:44:55.321Z,4.20
2023-03-11T09:47:34.436Z,4.00
2023-03-11T09:50:25.490Z,3.60
2023-03-11T09:53:02.401Z,3.30
2023-03-11T09:55:43.492Z,3.20
2023-03-11T09:58:15.639Z,3.10
2023-03-11T10:00:44.359Z,3.40
2023-03-11T10:03:32.718Z,3.50
2023-03-11T10:06:09.191Z,3.30
2023-03-11T10:08:44.244Z,3.10
2023-03-11T10:11:23.811Z,3.10
2023-03-11T10:14:02.578Z,3.30
2023-03-11T10:16:38.566Z,3.50
2023-03-11T10:19:11.802Z,3.80
2023-03-11T10:21:51.895Z,3.90
2023-03-11T10:24:37.001Z,3.80
2023-03-11T10:27:12.532Z,3.50
2023-03-11T10:29:49.135Z,3.10
2023-03-11T10:32:21.669Z,2.90
2023-03-11T10:34:55.070Z,2.60
2023-03-11T10:37:33.258Z,2.60
2023-03-11T10:40:16.370Z,2.70
2023-03-11T10:42:46.758Z,2.50
2023-03-11T10:45:15.826Z,2.40
2023-03-11T10:47:44.052Z,2.40
2023-03-11T10:50:16.966Z,2.30
2023-03-11T10:53:06.206Z,2.10
2023-03-11T10:55:34.154Z,2.00
2023-03-11T10:58:08.295Z,1.90
2023-03-11T11:00:36.154Z,1.80
2023-03-11T11:03:04.446Z,1.80
2023-03-11T11:05:33.997Z,1.80
2023-03-11T11:08:09.264Z,1.80
2023-03-11T11:10:38.597Z,1.90
2023-03-11T11:13:19.712Z,1.90
2023-03-11T11:15:59.989Z,2.00
2023-03-11T11:18:30.433Z,2.20
2023-03-11T11:21:02.365Z,2.60
2023-03-11T11:23:37.350Z,2.70
2023-03-11T11:26:08.993Z,3.10
2023-03-11T11:28:37.489Z,3.70
2023-03-11T11:31:07.841Z,4.30
2023-03-11T11:33:41.404Z,4.40
2023-03-11T11:36:16.641Z,5.50
2023-03-11T11:38:45.727Z,6.00
2023-03-11T11:41:17.570Z,5.60
2023-03-11T11:43:50.325Z,5.50
2023-03-11T11:46:26.940Z,5.00
2023-03-11T11:49:06.698Z,4.10
2023-03-11T11:51:37.652Z,3.90
2023-03-11T11:54:17.379Z,3.70
2023-03-11T11:56:45.510Z,3.40
2023-03-11T11:59:18.781Z,3.40
2023-03-11T12:01:58.005Z,3.40
2023-03-11T12:04:54.547Z,3.50
2023-03-11T12:07:39.470Z,3.50
2023-03-11T12:10:24.053Z,3.50
2023-03-11T12:13:23.663Z,3.50
2023-03-11T12:15:58.022Z,3.40
2023-03-11T12:18:30.695Z,3.30
2023-03-11T12:20:58.893Z,3.20
2023-03-11T12:23:38.696Z,3.10
2023-03-11T12:26:16.721Z,2.90
2023-03-11T12:28:49.856Z,2.70
2023-03-11T12:31:17.951Z,2.70
2023-03-11T12:33:47.968Z,2.70
2023-03-11T12:36:29.728Z,2.60
2023-03-11T12:38:58.428Z,2.70
2023-03-11T12:41:33.643Z,2.80
2023-03-11T12:44:06.580Z,2.90
2023-03-11T12:47:02.499Z,3.00
2023-03-11T12:49:31.741Z,3.60
2023-03-11T12:52:04.934Z,4.20
2023-03-11T12:54:34.373Z,4.40
2023-03-11T12:57:07.233Z,4.20
2023-03-11T13:00:17.452Z,3.90
2023-03-11T13:03:22.811Z,3.60
2023-03-11T13:05:58.313Z,3.80
2023-03-11T13:08:28.218Z,4.10
2023-03-11T13:10:57.091Z,4.50
2023-03-11T13:13:36.845Z,4.70
2023-03-11T13:16:38.767Z,4.60
2023-03-11T13:19:51.424Z,4.50
2023-03-11T13:22:43.127Z,4.20
2023-03-11T13:25:31.472Z,4.30
2023-03-11T13:28:08.101Z,4.60
2023-03-11T13:30:43.773Z,4.70
2023-03-11T13:33:25.668Z,4.70
2023-03-11T13:36:04.197Z,4.80
2023-03-11T13:39:02.981Z,5.00
2023-03-11T13:41:33.591Z,5.10
2023-03-11T13:44:06.469Z,5.00
2023-03-11T13:46:39.490Z,4.80
2023-03-11T13:49:12.961Z,4.60
2023-03-11T13:51:44.344Z,4.40
2023-03-11T13:54:33.589Z,4.10
2023-03-11T13:57:03.549Z,4.10
2023-03-11T13:59:32.877Z,4.10
2023-03-11T14:02:05.732Z,4.00
2023-03-11T14:04:36.350Z,3.90
2023-03-11T14:07:14.264Z,4.00
2023-03-11T14:09:42.071Z,4.00
2023-03-11T14:12:11.833Z,3.90
2023-03-11T14:14:49.081Z,3.70
2023-03-11T14:17:20.317Z,3.80
2023-03-11T14:20:08.075Z,3.80
2023-03-11T14:22:41.417Z,4.00
2023-03-11T14:25:20.685Z,4.10
2023-03-11T14:27:55.310Z,4.20
2023-03-11T14:30:26.612Z,4.10
2023-03-11T14:33:01.446Z,3.70
2023-03-11T14:35:30.514Z,3.60
2023-03-11T14:37:58.778Z,3.40
2023-03-11T14:40:30.247Z,3.10
2023-03-11T14:43:01.378Z,3.00
2023-03-11T14:45:31.846Z,3.10
2023-03-11T14:48:06.132Z,3.20
2023-03-11T14:50:36.069Z,3.40
2023-03-11T14:53:07.732Z,3.70
2023-03-11T14:55:40.408Z,3.90
2023-03-11T14:58:14.535Z,4.00
2023-03-11T15:00:47.459Z,4.20
2023-03-11T15:03:23.417Z,4.00
2023-03-11T15:05:54.489Z,4.00
2023-03-11T15:08:24.315Z,4.20
2023-03-11T15:11:18.928Z,4.40
2023-03-11T15:13:50.664Z,4.50
2023-03-11T15:16:32.581Z,4.40
2023-03-11T15:19:03.577Z,4.10
2023-03-11T15:21:31.441Z,3.80
2023-03-11T15:24:05.255Z,3.60
2023-03-11T15:26:35.584Z,3.40
2023-03-11T15:29:07.074Z,3.20
2023-03-11T15:31:37.333Z,3.10
2023-03-11T15:34:25.155Z,3.10
2023-03-11T15:37:00.644Z,3.00
2023-03-11T15:39:43.827Z,3.00
2023-03-11T15:42:19.325Z,3.00
2023-03-11T15:45:04.052Z,3.00
2023-03-11T15:47:32.305Z,3.00
2023-03-11T15:50:04.111Z,3.00
2023-03-11T15:52:31.876Z,3.10
2023-03-11T15:54:59.608Z,3.10
2023-03-11T15:57:29.193Z,3.20
2023-03-11T15:59:59.776Z,3.30
2023-03-11T16:02:29.535Z,3.20
2023-03-11T16:04:58.344Z,3.10
2023-03-11T16:07:39.224Z,3.10
2023-03-11T16:10:08.478Z,3.00
2023-03-11T16:12:36.211Z,2.90
2023-03-11T16:15:04.213Z,2.70
2023-03-11T16:17:46.833Z,2.50
2023-03-11T16:20:16.920Z,2.40
2023-03-11T16:22:46.509Z,2.30
2023-03-11T16:25:21.596Z,2.30
2023-03-11T16:27:51.144Z,2.30
2023-03-11T16:30:19.571Z,2.20
2023-03-11T16:32:47.535Z,2.20
2023-03-11T16:35:15.430Z,2.10
2023-03-11T16:37:43.622Z,2.10
2023-03-11T16:40:16.216Z,2.00
2023-03-11T16:42:44.672Z,2.00
2023-03-11T16:45:13.582Z,1.90
2023-03-11T16:47:41.396Z,1.80
2023-03-11T16:50:11.424Z,1.70
2023-03-11T16:52:39.272Z,1.70
2023-03-11T16:55:07.819Z,1.60
2023-03-11T16:57:37.830Z,1.40
2023-03-11T17:00:07.172Z,1.40
2023-03-11T17:02:35.010Z,1.30
2023-03-11T17:05:03.234Z,1.20
2023-03-11T17:07:31.168Z,1.10
2023-03-11T17:09:59.640Z,1.10
2023-03-11T17:12:28.763Z,1.00
2023-03-11T17:14:57.849Z,0.90
2023-03-11T17:17:25.689Z,0.80
2023-03-11T17:19:53.996Z,0.80
2023-03-11T17:22:21.766Z,0.70
2023-03-11T17:24:49.530Z,0.70
2023-03-11T17:27:17.388Z,0.70
2023-03-11T17:29:45.249Z,0.60
2023-03-11T17:32:17.567Z,0.60
2023-03-11T17:34:45.957Z,0.50
2023-03-11T17:37:14.212Z,0.50
2023-03-11T17:39:42.164Z,0.40
2023-03-11T17:42:09.921Z,0.40
2023-03-11T17:44:50.511Z,0.40
2023-03-11T17:47:21.417Z,0.40
2023-03-11T17:49:49.475Z,0.30
2023-03-11T17:52:17.333Z,0.40
2023-03-11T17:54:45.268Z,0.40
2023-03-11T17:57:13.110Z,0.40
2023-03-11T17:59:40.967Z,0.40
2023-03-11T18:02:09.214Z,0.20
2023-03-11T18:04:39.181Z,0.20
2023-03-11T18:07:08.357Z,0.20
2023-03-11T18:09:36.130Z,0.20
2023-03-11T18:12:04.077Z,0.20
2023-03-11T18:14:31.837Z,0.20
2023-03-11T18:16:59.658Z,0.20
2023-03-11T18:19:27.513Z,0.20
2023-03-11T18:21:56.599Z,0.20
2023-03-11T18:24:24.386Z,0.20
2023-03-11T18:26:52.216Z,0.10
2023-03-11T18:29:20.043Z,0.00
2023-03-11T18:31:47.946Z,0.00
2023-03-11T18:34:15.771Z,-0.10
2023-03-11T18:36:43.863Z,-0.10
2023-03-11T18:39:13.837Z,-0.10
2023-03-11T18:41:42.777Z,-0.10
2023-03-11T18:44:11.025Z,0.00
2023-03-11T18:46:38.796Z,0.10
2023-03-11T18:49:06.530Z,0.10
2023-03-11T18:51:34.295Z,0.10
2023-03-11T18:54:02.636Z,0.10
2023-03-11T18:56:32.048Z,0.10
2023-03-11T18:59:00.490Z,0.10
2023-03-11T19:01:28.445Z,0.10
2023-03-11T19:03:57.883Z,0.10
2023-03-11T19:06:27.051Z,0.10
2023-03-11T19:08:55.585Z,0.10
2023-03-11T19:11:24.954Z,0.10
2023-03-11T19:13:54.422Z,0.00
2023-03-11T19:16:25.166Z,-0.10
2023-03-11T19:18:55.130Z,-0.10
2023-03-11T19:21:23.080Z,-0.20
2023-03-11T19:23:52.846Z,-0.30
2023-03-11T19:26:23.900Z,-0.30
2023-03-11T19:28:57.155Z,-0.30
2023-03-11T19:31:24.990Z,-0.40
2023-03-11T19:33:52.814Z,-0.40
2023-03-11T19:36:20.550Z,-0.40
2023-03-11T19:38:48.818Z,-0.50
2023-03-11T19:41:19.318Z,-0.50
2023-03-11T19:43:48.323Z,-0.60
2023-03-11T19:46:18.985Z,-0.70
2023-03-11T19:48:46.905Z,-0.60
2023-03-11T19:51:15.076Z,-0.70
2023-03-11T19:53:42.927Z,-0.70
2023-03-11T19:56:11.306Z,-0.70
2023-03-11T19:58:39.164Z,-0.80
2023-03-11T20:01:06.968Z,-0.80
2023-03-11T20:03:36.083Z,-0.80
2023-03-11T20:06:05.749Z,-0.80
2023-03-11T20:08:36.830Z,-0.80
2023-03-11T20:11:06.058Z,-0.80
2023-03-11T20:13:34.873Z,-0.80
2023-03-11T20:16:10.928Z,-0.90
2023-03-11T20:18:40.328Z,-0.90
2023-03-11T20:21:10.147Z,-0.90
2023-03-11T20:23:38.413Z,-0.90
2023-03-11T20:26:07.257Z,-0.90
2023-03-11T20:28:35.226Z,-0.90
2023-03-11T20:31:09.580Z,-0.90
2023-03-11T20:33:38.503Z,-0.80
2023-03-11T20:36:09.965Z,-0.90
2023-03-11T20:38:37.850Z,-0.90
2023-03-11T20:41:08.173Z,-0.90
2023-03-11T20:43:36.659Z,-0.80
2023-03-11T20:46:05.767Z,-0.90
2023-03-11T20:48:33.702Z,-0.80
2023-03-11T20:51:02.325Z,-0.80
2023-03-11T20:53:32.214Z,-0.80
2023-03-11T20:56:01.266Z,-0.90
2023-03-11T20:58:29.042Z,-1.00
2023-03-11T21:00:56.840Z,-1.00
2023-03-11T21:03:24.741Z,-1.00
2023-03-11T21:05:52.625Z,-1.00
2023-03-11T21:08:20.471Z,-1.00
2023-03-11T21:10:52.701Z,-0.90
2023-03-11T21:13:20.473Z,-0.90
2023-03-11T21:15:48.421Z,-0.90
2023-03-11T21:18:16.443Z,-0.90
2023-03-11T21:20:44.382Z,-0.90
2023-03-11T21:23:12.131Z,-0.90
2023-03-11T21:25:42.665Z,-0.90
2023-03-11T21:28:13.396Z,-0.80
2023-03-11T21:30:41.556Z,-0.80
2023-03-11T21:33:09.761Z,-0.60
2023-03-11T21:35:37.661Z,-0.60
2023-03-11T21:38:05.701Z,-0.40
2023-03-11T21:40:33.661Z,-0.40
2023-03-11T21:43:01.500Z,-0.40
2023-03-11T21:45:30.879Z,-0.30
2023-03-11T21:47:59.119Z,-0.30
2023-03-11T21:50:26.901Z,-0.20
2023-03-11T21:52:54.882Z,-0.20
2023-03-11T21:55:22.776Z,-0.20
2023-03-11T21:57:50.625Z,-0.10
2023-03-11T22:00:19.223Z,-0.10
2023-03-11T22:02:48.579Z,-0.10
2023-03-11T22:05:16.677Z,-0.10
2023-03-11T22:07:44.779Z,-0.10
2023-03-11T22:10:12.988Z,-0.20
2023-03-11T22:12:41.110Z,-0.20
2023-03-11T22:15:10.138Z,-0.20
2023-03-11T22:17:38.458Z,-0.20
2023-03-11T22:20:10.080Z,-0.20
2023-03-11T22:22:38.051Z,-0.20
2023-03-11T22:25:06.619Z,-0.20
2023-03-11T22:27:34.404Z,-0.20
2023-03-11T22:30:02.280Z,-0.20
2023-03-11T22:32:30.037Z,-0.30
2023-03-11T22:34:57.811Z,-0.30
2023-03-11T22:37:26.871Z,-0.30
2023-03-11T22:39:54.610Z,-0.40
2023-03-11T22:42:22.328Z,-0.30
2023-03-11T22:44:50.258Z,-0.30
2023-03-11T22:47:17.995Z,-0.20
2023-03-11T22:49:45.898Z,-0.20
2023-03-11T22:52:13.609Z,-0.20
2023-03-11T22:54:42.744Z,-0.10
2023-03-11T22:57:10.520Z,-0.20
2023-03-11T22:59:38.346Z,-0.20
2023-03-11T23:02:06.095Z,-0.20
2023-03-11T23:04:33.996Z,-0.20
2023-03-11T23:07:01.809Z,-0.30
2023-03-11T23:09:29.530Z,-0.30
2023-03-11T23:11:58.617Z,-0.30
2023-03-11T23:14:37.819Z,-0.40
2023-03-11T23:17:11.719Z,-0.30
2023-03-11T23:19:39.735Z,-0.30
2023-03-11T23:22:07.715Z,-0.30
2023-03-11T23:24:35.464Z,-0.30
2023-03-11T23:27:05.537Z,-0.40
2023-03-11T23:29:33.497Z,-0.40
2023-03-11T23:32:01.247Z,-0.40
2023-03-11T23:34:28.969Z,-0.40
2023-03-11T23:36:56.803Z,-0.30
2023-03-11T23:39:24.542Z,-0.30
2023-03-11T23:41:52.295Z,-0.30
2023-03-11T23:44:21.326Z,-0.30
2023-03-11T23:46:49.100Z,-0.20
2023-03-11T23:49:16.827Z,-0.20
2023-03-11T23:51:44.582Z,-0.20
2023-03-11T23:54:12.333Z,-0.20
2023-03-11T23:56:40.093Z,-0.30
2023-03-11T23:59:07.814Z,-0.30
